sensor_id;sensor_type;location;lat;lon;timestamp;temperature;humidity
43949;DHT22;29429;51.074;13.764;2023-08-30T00:01:24;14.30;99.90
43949;DHT22;29429;51.074;13.764;2023-08-30T00:03:51;14.20;99.90
43949;DHT22;29429;51.074;13.764;2023-08-30T00:06:18;14.20;99.90
43949;DHT22;29429;51.074;13.764;2023-08-30T00:08:45;14.20;99.90
43949;DHT22;29429;51.074;13.764;2023-08-30T00:11:13;14.20;99.90
43949;DHT22;29429;51.074;13.764;2023-08-30T00:13:41;14.20;99.90
43949;DHT22;29429;51.074;13.764;2023-08-30T00:16:09;14.20;99.90
43949;DHT22;29429;51.074;13.764;2023-08-30T00:18:36;14.20;99.90
43949;DHT22;29429;51.074;13.764;2023-08-30T00:21:03;14.20;99.90
43949;DHT22;29429;51.074;13.764;2023-08-30T00:23:30;14.20;99.90
43949;DHT22;29429;51.074;13.764;2023-08-30T00:25:57;14.20;99.90
43949;DHT22;29429;51.074;13.764;2023-08-30T00:28:24;14.20;99.90
43949;DHT22;29429;51.074;13.764;2023-08-30T00:30:55;14.20;99.90
43949;DHT22;29429;51.074;13.764;2023-08-30T00:33:22;14.20;99.90
43949;DHT22;29429;51.074;13.764;2023-08-30T00:35:57;14.20;99.90
43949;DHT22;29429;51.074;13.764;2023-08-30T00:38:28;14.30;99.90
43949;DHT22;29429;51.074;13.764;2023-08-30T00:40:55;14.30;99.90
43949;DHT22;29429;51.074;13.764;2023-08-30T00:43:22;14.30;99.90
43949;DHT22;29429;51.074;13.764;2023-08-30T00:45:49;14.20;99.90
43949;DHT22;29429;51.074;13.764;2023-08-30T00:48:20;14.30;99.90
43949;DHT22;29429;51.074;13.764;2023-08-30T00:50:47;14.30;99.90
43949;DHT22;29429;51.074;13.764;2023-08-30T00:53:15;14.30;99.90
43949;DHT22;29429;51.074;13.764;2023-08-30T00:55:44;14.30;99.90
43949;DHT22;29429;51.074;13.764;2023-08-30T00:58:12;14.30;99.90
43949;DHT22;29429;51.074;13.764;2023-08-30T01:00:39;14.30;99.90
43949;DHT22;29429;51.074;13.764;2023-08-30T01:03:09;14.30;99.90
43949;DHT22;29429;51.074;13.764;2023-08-30T01:05:37;14.30;99.90
43949;DHT22;29429;51.074;13.764;2023-08-30T01:08:04;14.30;99.90
43949;DHT22;29429;51.074;13.764;2023-08-30T01:11:05;14.40;99.90
43949;DHT22;29429;51.074;13.764;2023-08-30T01:13:42;14.40;99.90
43949;DHT22;29429;51.074;13.764;2023-08-30T01:16:14;14.30;99.90
43949;DHT22;29429;51.074;13.764;2023-08-30T01:18:44;14.30;99.90
43949;DHT22;29429;51.074;13.764;2023-08-30T01:21:18;14.30;99.90
43949;DHT22;29429;51.074;13.764;2023-08-30T01:23:58;14.40;99.90
43949;DHT22;29429;51.074;13.764;2023-08-30T01:29:38;14.30;99.90
43949;DHT22;29429;51.074;13.764;2023-08-30T01:32:09;14.30;99.90
43949;DHT22;29429;51.074;13.764;2023-08-30T01:34:39;14.30;99.90
43949;DHT22;29429;51.074;13.764;2023-08-30T01:37:08;14.30;99.90
43949;DHT22;29429;51.074;13.764;2023-08-30T01:39:39;14.40;99.90
43949;DHT22;29429;51.074;13.764;2023-08-30T01:42:08;14.40;99.90
43949;DHT22;29429;51.074;13.764;2023-08-30T01:44:38;14.40;99.90
43949;DHT22;29429;51.074;13.764;2023-08-30T01:47:08;14.40;99.90
43949;DHT22;29429;51.074;13.764;2023-08-30T01:49:36;14.40;99.90
43949;DHT22;29429;51.074;13.764;2023-08-30T01:52:06;14.40;99.90
43949;DHT22;29429;51.074;13.764;2023-08-30T01:54:37;14.40;99.90
43949;DHT22;29429;51.074;13.764;2023-08-30T01:57:05;14.50;99.90
43949;DHT22;29429;51.074;13.764;2023-08-30T01:59:32;14.50;99.90
43949;DHT22;29429;51.074;13.764;2023-08-30T02:01:59;14.40;99.90
43949;DHT22;29429;51.074;13.764;2023-08-30T02:04:27;14.40;99.90
43949;DHT22;29429;51.074;13.764;2023-08-30T02:07:02;14.50;99.90
43949;DHT22;29429;51.074;13.764;2023-08-30T02:09:40;14.50;99.90
43949;DHT22;29429;51.074;13.764;2023-08-30T02:15:26;14.40;99.90
43949;DHT22;29429;51.074;13.764;2023-08-30T02:17:56;14.40;99.90
43949;DHT22;29429;51.074;13.764;2023-08-30T02:20:24;14.40;99.90
43949;DHT22;29429;51.074;13.764;2023-08-30T02:22:51;14.40;99.90
43949;DHT22;29429;51.074;13.764;2023-08-30T02:25:18;14.40;99.90
43949;DHT22;29429;51.074;13.764;2023-08-30T02:27:46;14.40;99.90
43949;DHT22;29429;51.074;13.764;2023-08-30T02:30:13;14.40;99.90
43949;DHT22;29429;51.074;13.764;2023-08-30T02:32:40;14.40;99.90
43949;DHT22;29429;51.074;13.764;2023-08-30T02:35:08;14.40;99.90
43949;DHT22;29429;51.074;13.764;2023-08-30T02:37:37;14.40;99.90
43949;DHT22;29429;51.074;13.764;2023-08-30T02:40:04;14.40;99.90
43949;DHT22;29429;51.074;13.764;2023-08-30T02:42:32;14.40;99.90
43949;DHT22;29429;51.074;13.764;2023-08-30T02:44:59;14.40;99.90
43949;DHT22;29429;51.074;13.764;2023-08-30T02:47:26;14.40;99.90
43949;DHT22;29429;51.074;13.764;2023-08-30T02:49:53;14.40;99.90
43949;DHT22;29429;51.074;13.764;2023-08-30T02:52:20;14.40;99.90
43949;DHT22;29429;51.074;13.764;2023-08-30T02:54:47;14.40;99.90
43949;DHT22;29429;51.074;13.764;2023-08-30T02:57:14;14.50;99.90
43949;DHT22;29429;51.074;13.764;2023-08-30T02:59:41;14.40;99.90
43949;DHT22;29429;51.074;13.764;2023-08-30T03:02:08;14.40;99.90
43949;DHT22;29429;51.074;13.764;2023-08-30T03:04:36;14.40;99.90
43949;DHT22;29429;51.074;13.764;2023-08-30T03:07:05;14.40;99.90
43949;DHT22;29429;51.074;13.764;2023-08-30T03:09:32;14.40;99.90
43949;DHT22;29429;51.074;13.764;2023-08-30T03:11:59;14.40;99.90
43949;DHT22;29429;51.074;13.764;2023-08-30T03:14:26;14.40;99.90
43949;DHT22;29429;51.074;13.764;2023-08-30T03:16:54;14.40;99.90
43949;DHT22;29429;51.074;13.764;2023-08-30T03:19:21;14.40;99.90
43949;DHT22;29429;51.074;13.764;2023-08-30T03:21:48;14.40;99.90
43949;DHT22;29429;51.074;13.764;2023-08-30T03:24:15;14.40;99.90
43949;DHT22;29429;51.074;13.764;2023-08-30T03:26:43;14.40;99.90
43949;DHT22;29429;51.074;13.764;2023-08-30T03:29:11;14.40;99.90
43949;DHT22;29429;51.074;13.764;2023-08-30T03:31:38;14.40;99.90
43949;DHT22;29429;51.074;13.764;2023-08-30T03:34:05;14.40;99.90
43949;DHT22;29429;51.074;13.764;2023-08-30T03:36:32;14.40;99.90
43949;DHT22;29429;51.074;13.764;2023-08-30T03:38:59;14.40;99.90
43949;DHT22;29429;51.074;13.764;2023-08-30T03:41:26;14.40;99.90
43949;DHT22;29429;51.074;13.764;2023-08-30T03:43:53;14.20;99.90
43949;DHT22;29429;51.074;13.764;2023-08-30T03:46:20;14.40;99.90
43949;DHT22;29429;51.074;13.764;2023-08-30T03:48:47;14.40;99.90
43949;DHT22;29429;51.074;13.764;2023-08-30T03:51:15;14.40;99.90
43949;DHT22;29429;51.074;13.764;2023-08-30T03:53:42;14.30;99.90
43949;DHT22;29429;51.074;13.764;2023-08-30T03:56:09;14.30;99.90
43949;DHT22;29429;51.074;13.764;2023-08-30T03:58:37;14.30;99.90
43949;DHT22;29429;51.074;13.764;2023-08-30T04:01:04;14.30;99.90
43949;DHT22;29429;51.074;13.764;2023-08-30T04:03:33;14.30;99.90
43949;DHT22;29429;51.074;13.764;2023-08-30T04:06:01;14.30;99.90
43949;DHT22;29429;51.074;13.764;2023-08-30T04:08:28;14.30;99.90
43949;DHT22;29429;51.074;13.764;2023-08-30T04:10:55;14.30;99.90
43949;DHT22;29429;51.074;13.764;2023-08-30T04:13:22;14.30;99.90
43949;DHT22;29429;51.074;13.764;2023-08-30T04:15:50;14.30;99.90
43949;DHT22;29429;51.074;13.764;2023-08-30T04:18:18;14.30;99.90
43949;DHT22;29429;51.074;13.764;2023-08-30T04:20:46;14.30;99.90
43949;DHT22;29429;51.074;13.764;2023-08-30T04:23:14;14.30;99.90
43949;DHT22;29429;51.074;13.764;2023-08-30T04:25:44;14.30;99.90
43949;DHT22;29429;51.074;13.764;2023-08-30T04:28:11;14.30;99.90
43949;DHT22;29429;51.074;13.764;2023-08-30T04:30:39;14.30;99.90
43949;DHT22;29429;51.074;13.764;2023-08-30T04:33:07;14.30;99.90
43949;DHT22;29429;51.074;13.764;2023-08-30T04:35:34;14.20;99.90
43949;DHT22;29429;51.074;13.764;2023-08-30T04:38:02;14.20;99.90
43949;DHT22;29429;51.074;13.764;2023-08-30T04:40:30;14.30;99.90
43949;DHT22;29429;51.074;13.764;2023-08-30T04:42:58;14.30;99.90
43949;DHT22;29429;51.074;13.764;2023-08-30T04:45:25;14.20;99.90
43949;DHT22;29429;51.074;13.764;2023-08-30T04:47:53;14.30;99.90
43949;DHT22;29429;51.074;13.764;2023-08-30T04:50:21;14.30;99.90
43949;DHT22;29429;51.074;13.764;2023-08-30T04:52:48;14.30;99.90
43949;DHT22;29429;51.074;13.764;2023-08-30T04:55:17;14.40;99.90
43949;DHT22;29429;51.074;13.764;2023-08-30T04:57:44;14.40;99.90
43949;DHT22;29429;51.074;13.764;2023-08-30T05:00:14;14.40;99.90
43949;DHT22;29429;51.074;13.764;2023-08-30T05:02:42;14.40;99.90
43949;DHT22;29429;51.074;13.764;2023-08-30T05:05:11;14.40;99.90
43949;DHT22;29429;51.074;13.764;2023-08-30T05:07:39;14.40;99.90
43949;DHT22;29429;51.074;13.764;2023-08-30T05:10:06;14.40;99.90
43949;DHT22;29429;51.074;13.764;2023-08-30T05:12:34;14.50;99.90
43949;DHT22;29429;51.074;13.764;2023-08-30T05:15:02;14.50;99.90
43949;DHT22;29429;51.074;13.764;2023-08-30T05:17:31;14.50;99.90
43949;DHT22;29429;51.074;13.764;2023-08-30T05:19:58;14.50;99.90
43949;DHT22;29429;51.074;13.764;2023-08-30T05:22:25;14.60;99.90
43949;DHT22;29429;51.074;13.764;2023-08-30T05:24:53;14.60;99.90
43949;DHT22;29429;51.074;13.764;2023-08-30T05:27:20;14.70;99.90
43949;DHT22;29429;51.074;13.764;2023-08-30T05:29:47;14.70;99.90
43949;DHT22;29429;51.074;13.764;2023-08-30T05:32:15;14.70;99.90
43949;DHT22;29429;51.074;13.764;2023-08-30T05:35:00;14.80;99.90
43949;DHT22;29429;51.074;13.764;2023-08-30T05:38:03;14.80;99.90
43949;DHT22;29429;51.074;13.764;2023-08-30T05:41:05;14.90;99.90
43949;DHT22;29429;51.074;13.764;2023-08-30T05:43:32;14.90;99.90
43949;DHT22;29429;51.074;13.764;2023-08-30T05:45:59;14.90;99.90
43949;DHT22;29429;51.074;13.764;2023-08-30T05:48:29;14.90;99.90
43949;DHT22;29429;51.074;13.764;2023-08-30T05:50:57;14.90;99.90
43949;DHT22;29429;51.074;13.764;2023-08-30T05:53:24;14.90;99.90
43949;DHT22;29429;51.074;13.764;2023-08-30T05:55:51;14.90;99.90
43949;DHT22;29429;51.074;13.764;2023-08-30T05:58:18;14.90;99.90
43949;DHT22;29429;51.074;13.764;2023-08-30T06:00:47;15.00;99.90
43949;DHT22;29429;51.074;13.764;2023-08-30T06:03:14;15.00;99.90
43949;DHT22;29429;51.074;13.764;2023-08-30T06:05:41;15.00;99.90
43949;DHT22;29429;51.074;13.764;2023-08-30T06:08:09;15.10;99.90
43949;DHT22;29429;51.074;13.764;2023-08-30T06:10:37;15.00;99.90
43949;DHT22;29429;51.074;13.764;2023-08-30T06:13:05;15.10;99.90
43949;DHT22;29429;51.074;13.764;2023-08-30T06:15:32;15.10;99.90
43949;DHT22;29429;51.074;13.764;2023-08-30T06:18:00;15.20;99.90
43949;DHT22;29429;51.074;13.764;2023-08-30T06:20:27;15.20;99.90
43949;DHT22;29429;51.074;13.764;2023-08-30T06:22:57;15.30;99.90
43949;DHT22;29429;51.074;13.764;2023-08-30T06:25:29;15.30;99.90
43949;DHT22;29429;51.074;13.764;2023-08-30T06:27:59;15.30;99.90
43949;DHT22;29429;51.074;13.764;2023-08-30T06:30:28;15.40;99.90
43949;DHT22;29429;51.074;13.764;2023-08-30T06:32:59;15.40;99.90
43949;DHT22;29429;51.074;13.764;2023-08-30T06:35:27;15.40;99.90
43949;DHT22;29429;51.074;13.764;2023-08-30T06:37:54;15.50;99.90
43949;DHT22;29429;51.074;13.764;2023-08-30T06:40:22;15.50;99.90
43949;DHT22;29429;51.074;13.764;2023-08-30T06:42:50;15.50;99.90
43949;DHT22;29429;51.074;13.764;2023-08-30T06:45:17;15.40;99.90
43949;DHT22;29429;51.074;13.764;2023-08-30T06:47:44;15.50;99.90
43949;DHT22;29429;51.074;13.764;2023-08-30T06:50:11;15.50;99.90
43949;DHT22;29429;51.074;13.764;2023-08-30T06:52:38;15.60;99.90
43949;DHT22;29429;51.074;13.764;2023-08-30T06:55:05;15.70;99.90
43949;DHT22;29429;51.074;13.764;2023-08-30T06:57:33;15.80;99.90
43949;DHT22;29429;51.074;13.764;2023-08-30T07:00:00;15.90;99.90
43949;DHT22;29429;51.074;13.764;2023-08-30T07:02:36;16.00;99.90
43949;DHT22;29429;51.074;13.764;2023-08-30T07:05:04;16.10;99.90
43949;DHT22;29429;51.074;13.764;2023-08-30T07:07:32;16.20;99.90
43949;DHT22;29429;51.074;13.764;2023-08-30T07:09:59;16.20;99.90
43949;DHT22;29429;51.074;13.764;2023-08-30T07:12:26;16.20;99.90
43949;DHT22;29429;51.074;13.764;2023-08-30T07:14:53;16.30;99.90
43949;DHT22;29429;51.074;13.764;2023-08-30T07:17:21;16.40;99.90
43949;DHT22;29429;51.074;13.764;2023-08-30T07:19:49;16.40;99.90
43949;DHT22;29429;51.074;13.764;2023-08-30T07:22:16;16.50;99.90
43949;DHT22;29429;51.074;13.764;2023-08-30T07:24:45;16.50;99.90
43949;DHT22;29429;51.074;13.764;2023-08-30T07:27:12;16.50;99.90
43949;DHT22;29429;51.074;13.764;2023-08-30T07:29:39;16.60;99.90
43949;DHT22;29429;51.074;13.764;2023-08-30T07:32:07;16.70;99.90
43949;DHT22;29429;51.074;13.764;2023-08-30T07:34:35;16.80;99.90
43949;DHT22;29429;51.074;13.764;2023-08-30T07:37:02;16.80;99.90
43949;DHT22;29429;51.074;13.764;2023-08-30T07:39:29;16.90;99.90
43949;DHT22;29429;51.074;13.764;2023-08-30T07:41:57;17.00;99.90
43949;DHT22;29429;51.074;13.764;2023-08-30T07:44:24;17.00;99.90
43949;DHT22;29429;51.074;13.764;2023-08-30T07:46:51;17.00;99.90
43949;DHT22;29429;51.074;13.764;2023-08-30T07:49:18;17.10;99.90
43949;DHT22;29429;51.074;13.764;2023-08-30T07:59:08;17.20;99.90
43949;DHT22;29429;51.074;13.764;2023-08-30T08:01:35;17.60;99.90
43949;DHT22;29429;51.074;13.764;2023-08-30T08:04:02;17.60;99.90
43949;DHT22;29429;51.074;13.764;2023-08-30T08:06:34;17.60;99.90
43949;DHT22;29429;51.074;13.764;2023-08-30T08:09:04;17.60;99.90
43949;DHT22;29429;51.074;13.764;2023-08-30T08:11:32;17.50;99.90
43949;DHT22;29429;51.074;13.764;2023-08-30T08:13:59;17.40;99.90
43949;DHT22;29429;51.074;13.764;2023-08-30T08:16:27;17.40;99.90
43949;DHT22;29429;51.074;13.764;2023-08-30T08:18:55;17.40;99.90
43949;DHT22;29429;51.074;13.764;2023-08-30T08:21:26;17.40;99.90
43949;DHT22;29429;51.074;13.764;2023-08-30T08:24:16;17.40;99.90
43949;DHT22;29429;51.074;13.764;2023-08-30T08:26:43;17.50;99.90
43949;DHT22;29429;51.074;13.764;2023-08-30T08:29:10;17.60;99.90
43949;DHT22;29429;51.074;13.764;2023-08-30T08:31:37;17.70;99.90
43949;DHT22;29429;51.074;13.764;2023-08-30T08:34:10;17.70;99.90
43949;DHT22;29429;51.074;13.764;2023-08-30T08:36:40;17.80;99.90
43949;DHT22;29429;51.074;13.764;2023-08-30T08:39:08;17.80;99.90
43949;DHT22;29429;51.074;13.764;2023-08-30T08:41:41;17.90;99.90
43949;DHT22;29429;51.074;13.764;2023-08-30T08:44:10;18.00;99.90
43949;DHT22;29429;51.074;13.764;2023-08-30T08:46:39;18.10;99.90
43949;DHT22;29429;51.074;13.764;2023-08-30T08:49:17;18.10;99.90
43949;DHT22;29429;51.074;13.764;2023-08-30T08:51:45;18.20;99.90
43949;DHT22;29429;51.074;13.764;2023-08-30T08:54:13;18.30;99.90
43949;DHT22;29429;51.074;13.764;2023-08-30T08:56:40;18.40;99.90
43949;DHT22;29429;51.074;13.764;2023-08-30T08:59:07;18.50;99.90
43949;DHT22;29429;51.074;13.764;2023-08-30T09:01:38;18.60;99.90
43949;DHT22;29429;51.074;13.764;2023-08-30T09:04:10;18.70;99.90
43949;DHT22;29429;51.074;13.764;2023-08-30T09:06:38;18.90;99.90
43949;DHT22;29429;51.074;13.764;2023-08-30T09:09:08;18.90;99.90
43949;DHT22;29429;51.074;13.764;2023-08-30T09:11:35;18.90;99.90
43949;DHT22;29429;51.074;13.764;2023-08-30T09:14:18;19.00;99.90
43949;DHT22;29429;51.074;13.764;2023-08-30T09:16:55;19.20;99.90
43949;DHT22;29429;51.074;13.764;2023-08-30T09:19:24;19.30;99.90
43949;DHT22;29429;51.074;13.764;2023-08-30T09:21:57;19.30;99.90
43949;DHT22;29429;51.074;13.764;2023-08-30T09:24:26;19.50;99.90
43949;DHT22;29429;51.074;13.764;2023-08-30T09:27:04;19.50;99.90
43949;DHT22;29429;51.074;13.764;2023-08-30T09:31:58;19.70;99.90
43949;DHT22;29429;51.074;13.764;2023-08-30T09:34:27;20.00;99.90
43949;DHT22;29429;51.074;13.764;2023-08-30T09:36:55;20.20;99.90
43949;DHT22;29429;51.074;13.764;2023-08-30T09:39:22;20.40;99.90
43949;DHT22;29429;51.074;13.764;2023-08-30T09:41:50;20.40;99.90
43949;DHT22;29429;51.074;13.764;2023-08-30T09:44:21;20.30;99.90
43949;DHT22;29429;51.074;13.764;2023-08-30T09:46:54;20.30;99.90
43949;DHT22;29429;51.074;13.764;2023-08-30T09:49:24;20.30;99.90
43949;DHT22;29429;51.074;13.764;2023-08-30T09:51:54;20.30;99.90
43949;DHT22;29429;51.074;13.764;2023-08-30T09:54:25;20.40;99.90
43949;DHT22;29429;51.074;13.764;2023-08-30T09:56:59;20.50;99.90
43949;DHT22;29429;51.074;13.764;2023-08-30T09:59:27;20.50;99.90
43949;DHT22;29429;51.074;13.764;2023-08-30T10:01:55;20.50;99.90
43949;DHT22;29429;51.074;13.764;2023-08-30T10:04:24;20.50;99.90
43949;DHT22;29429;51.074;13.764;2023-08-30T10:06:54;20.50;99.90
43949;DHT22;29429;51.074;13.764;2023-08-30T10:09:24;20.50;99.90
43949;DHT22;29429;51.074;13.764;2023-08-30T10:11:52;20.60;99.90
43949;DHT22;29429;51.074;13.764;2023-08-30T10:14:19;20.70;99.90
43949;DHT22;29429;51.074;13.764;2023-08-30T10:16:48;20.80;99.90
43949;DHT22;29429;51.074;13.764;2023-08-30T10:19:17;20.90;99.90
43949;DHT22;29429;51.074;13.764;2023-08-30T10:22:04;20.90;99.90
43949;DHT22;29429;51.074;13.764;2023-08-30T10:25:21;20.80;99.90
43949;DHT22;29429;51.074;13.764;2023-08-30T10:27:41;20.70;99.90
43949;DHT22;29429;51.074;13.764;2023-08-30T10:30:12;20.70;99.90
43949;DHT22;29429;51.074;13.764;2023-08-30T10:32:42;20.60;99.90
43949;DHT22;29429;51.074;13.764;2023-08-30T10:35:11;20.60;99.90
43949;DHT22;29429;51.074;13.764;2023-08-30T10:37:40;20.50;99.90
43949;DHT22;29429;51.074;13.764;2023-08-30T10:40:09;20.50;99.90
43949;DHT22;29429;51.074;13.764;2023-08-30T10:42:36;20.70;99.90
43949;DHT22;29429;51.074;13.764;2023-08-30T10:45:07;20.90;99.90
43949;DHT22;29429;51.074;13.764;2023-08-30T10:47:40;21.00;99.90
43949;DHT22;29429;51.074;13.764;2023-08-30T10:50:10;21.20;99.90
43949;DHT22;29429;51.074;13.764;2023-08-30T10:52:38;21.50;99.90
43949;DHT22;29429;51.074;13.764;2023-08-30T10:57:41;21.70;99.90
43949;DHT22;29429;51.074;13.764;2023-08-30T11:00:18;21.80;99.90
43949;DHT22;29429;51.074;13.764;2023-08-30T11:02:50;21.90;99.90
43949;DHT22;29429;51.074;13.764;2023-08-30T11:05:22;22.00;99.90
43949;DHT22;29429;51.074;13.764;2023-08-30T11:07:52;22.00;99.90
43949;DHT22;29429;51.074;13.764;2023-08-30T11:10:20;22.20;99.90
43949;DHT22;29429;51.074;13.764;2023-08-30T11:12:48;22.30;99.90
43949;DHT22;29429;51.074;13.764;2023-08-30T11:15:17;22.30;99.90
43949;DHT22;29429;51.074;13.764;2023-08-30T11:17:45;22.30;99.90
43949;DHT22;29429;51.074;13.764;2023-08-30T11:20:14;22.40;99.90
43949;DHT22;29429;51.074;13.764;2023-08-30T11:22:47;22.30;99.80
43949;DHT22;29429;51.074;13.764;2023-08-30T11:25:16;22.20;99.90
43949;DHT22;29429;51.074;13.764;2023-08-30T11:27:44;22.20;99.20
43949;DHT22;29429;51.074;13.764;2023-08-30T11:30:12;22.10;99.70
43949;DHT22;29429;51.074;13.764;2023-08-30T11:32:41;22.00;99.60
43949;DHT22;29429;51.074;13.764;2023-08-30T11:35:13;21.90;99.40
43949;DHT22;29429;51.074;13.764;2023-08-30T11:37:40;21.80;99.90
43949;DHT22;29429;51.074;13.764;2023-08-30T11:40:11;21.80;99.70
43949;DHT22;29429;51.074;13.764;2023-08-30T11:42:39;21.70;99.90
43949;DHT22;29429;51.074;13.764;2023-08-30T11:45:07;21.70;99.90
43949;DHT22;29429;51.074;13.764;2023-08-30T11:47:34;21.70;99.90
43949;DHT22;29429;51.074;13.764;2023-08-30T11:50:02;21.60;99.90
43949;DHT22;29429;51.074;13.764;2023-08-30T11:52:30;21.60;99.90
43949;DHT22;29429;51.074;13.764;2023-08-30T11:54:58;21.60;99.60
43949;DHT22;29429;51.074;13.764;2023-08-30T11:57:25;21.50;99.90
43949;DHT22;29429;51.074;13.764;2023-08-30T11:59:52;21.60;99.90
43949;DHT22;29429;51.074;13.764;2023-08-30T12:02:19;21.50;98.40
43949;DHT22;29429;51.074;13.764;2023-08-30T12:04:50;21.40;98.40
43949;DHT22;29429;51.074;13.764;2023-08-30T12:07:25;21.40;99.30
43949;DHT22;29429;51.074;13.764;2023-08-30T12:10:06;21.40;99.40
43949;DHT22;29429;51.074;13.764;2023-08-30T12:12:35;21.40;99.90
43949;DHT22;29429;51.074;13.764;2023-08-30T12:15:10;21.30;99.90
43949;DHT22;29429;51.074;13.764;2023-08-30T12:17:38;21.40;99.90
43949;DHT22;29429;51.074;13.764;2023-08-30T12:20:05;21.40;99.90
43949;DHT22;29429;51.074;13.764;2023-08-30T12:22:40;21.40;99.90
43949;DHT22;29429;51.074;13.764;2023-08-30T12:25:19;21.40;99.90
43949;DHT22;29429;51.074;13.764;2023-08-30T12:27:48;21.50;99.90
43949;DHT22;29429;51.074;13.764;2023-08-30T12:30:15;21.50;99.90
43949;DHT22;29429;51.074;13.764;2023-08-30T12:32:47;21.50;99.80
43949;DHT22;29429;51.074;13.764;2023-08-30T12:35:15;21.30;99.70
43949;DHT22;29429;51.074;13.764;2023-08-30T12:37:43;21.20;97.20
43949;DHT22;29429;51.074;13.764;2023-08-30T12:40:11;21.00;97.60
43949;DHT22;29429;51.074;13.764;2023-08-30T12:42:39;20.80;97.80
43949;DHT22;29429;51.074;13.764;2023-08-30T12:45:06;20.70;98.70
43949;DHT22;29429;51.074;13.764;2023-08-30T12:47:34;20.60;98.80
43949;DHT22;29429;51.074;13.764;2023-08-30T12:50:03;20.50;99.30
43949;DHT22;29429;51.074;13.764;2023-08-30T12:52:30;20.50;99.90
43949;DHT22;29429;51.074;13.764;2023-08-30T12:54:57;20.50;99.90
43949;DHT22;29429;51.074;13.764;2023-08-30T12:57:26;20.60;99.90
43949;DHT22;29429;51.074;13.764;2023-08-30T12:59:53;20.70;99.90
43949;DHT22;29429;51.074;13.764;2023-08-30T13:02:26;20.90;99.90
43949;DHT22;29429;51.074;13.764;2023-08-30T13:04:53;21.10;99.90
43949;DHT22;29429;51.074;13.764;2023-08-30T13:07:20;21.30;99.90
43949;DHT22;29429;51.074;13.764;2023-08-30T13:09:47;21.40;99.90
43949;DHT22;29429;51.074;13.764;2023-08-30T13:12:14;21.50;99.90
43949;DHT22;29429;51.074;13.764;2023-08-30T13:14:41;21.50;99.90
43949;DHT22;29429;51.074;13.764;2023-08-30T13:17:08;21.50;99.30
43949;DHT22;29429;51.074;13.764;2023-08-30T13:19:35;21.40;99.10
43949;DHT22;29429;51.074;13.764;2023-08-30T13:22:02;21.30;99.90
43949;DHT22;29429;51.074;13.764;2023-08-30T13:24:29;21.30;99.90
43949;DHT22;29429;51.074;13.764;2023-08-30T13:26:59;21.30;99.90
43949;DHT22;29429;51.074;13.764;2023-08-30T13:29:26;21.30;99.80
43949;DHT22;29429;51.074;13.764;2023-08-30T13:31:53;21.50;99.90
43949;DHT22;29429;51.074;13.764;2023-08-30T13:34:20;21.60;99.80
43949;DHT22;29429;51.074;13.764;2023-08-30T13:36:47;21.60;97.90
43949;DHT22;29429;51.074;13.764;2023-08-30T13:39:14;21.50;97.00
43949;DHT22;29429;51.074;13.764;2023-08-30T13:41:41;21.40;97.30
43949;DHT22;29429;51.074;13.764;2023-08-30T13:44:30;21.30;98.50
43949;DHT22;29429;51.074;13.764;2023-08-30T13:47:07;21.00;97.50
43949;DHT22;29429;51.074;13.764;2023-08-30T13:49:35;21.10;97.50
43949;DHT22;29429;51.074;13.764;2023-08-30T13:52:03;20.90;97.40
43949;DHT22;29429;51.074;13.764;2023-08-30T13:54:32;20.80;97.20
43949;DHT22;29429;51.074;13.764;2023-08-30T13:56:59;20.70;97.70
43949;DHT22;29429;51.074;13.764;2023-08-30T13:59:26;20.60;98.10
43949;DHT22;29429;51.074;13.764;2023-08-30T14:01:55;20.50;98.80
43949;DHT22;29429;51.074;13.764;2023-08-30T14:04:24;20.40;98.80
43949;DHT22;29429;51.074;13.764;2023-08-30T14:06:52;20.30;99.50
43949;DHT22;29429;51.074;13.764;2023-08-30T14:09:19;20.40;98.90
43949;DHT22;29429;51.074;13.764;2023-08-30T14:11:48;20.40;98.60
43949;DHT22;29429;51.074;13.764;2023-08-30T14:14:16;20.60;98.90
43949;DHT22;29429;51.074;13.764;2023-08-30T14:16:43;20.70;96.90
43949;DHT22;29429;51.074;13.764;2023-08-30T14:19:10;20.80;98.00
43949;DHT22;29429;51.074;13.764;2023-08-30T14:21:38;21.00;98.00
43949;DHT22;29429;51.074;13.764;2023-08-30T14:24:05;21.10;97.90
43949;DHT22;29429;51.074;13.764;2023-08-30T14:26:32;21.10;96.40
43949;DHT22;29429;51.074;13.764;2023-08-30T14:28:59;21.10;95.40
43949;DHT22;29429;51.074;13.764;2023-08-30T14:31:26;21.10;95.90
43949;DHT22;29429;51.074;13.764;2023-08-30T14:33:55;21.10;95.50
43949;DHT22;29429;51.074;13.764;2023-08-30T14:36:26;21.10;96.30
43949;DHT22;29429;51.074;13.764;2023-08-30T14:38:53;21.10;97.80
43949;DHT22;29429;51.074;13.764;2023-08-30T14:41:20;21.10;98.40
43949;DHT22;29429;51.074;13.764;2023-08-30T14:43:47;21.10;97.60
43949;DHT22;29429;51.074;13.764;2023-08-30T14:46:14;21.00;98.30
43949;DHT22;29429;51.074;13.764;2023-08-30T14:48:49;20.90;98.80
43949;DHT22;29429;51.074;13.764;2023-08-30T14:51:16;20.80;99.40
43949;DHT22;29429;51.074;13.764;2023-08-30T14:53:43;20.80;99.90
43949;DHT22;29429;51.074;13.764;2023-08-30T14:56:10;20.60;98.40
43949;DHT22;29429;51.074;13.764;2023-08-30T14:58:39;20.50;98.20
43949;DHT22;29429;51.074;13.764;2023-08-30T15:01:09;20.50;96.90
43949;DHT22;29429;51.074;13.764;2023-08-30T15:03:37;20.40;98.10
43949;DHT22;29429;51.074;13.764;2023-08-30T15:06:04;20.30;97.70
43949;DHT22;29429;51.074;13.764;2023-08-30T15:08:31;20.20;98.60
43949;DHT22;29429;51.074;13.764;2023-08-30T15:10:58;20.20;99.60
43949;DHT22;29429;51.074;13.764;2023-08-30T15:13:26;20.10;99.90
43949;DHT22;29429;51.074;13.764;2023-08-30T15:15:53;20.10;99.90
43949;DHT22;29429;51.074;13.764;2023-08-30T15:18:21;20.00;99.90
43949;DHT22;29429;51.074;13.764;2023-08-30T15:20:51;19.80;99.90
43949;DHT22;29429;51.074;13.764;2023-08-30T15:23:20;19.70;99.90
43949;DHT22;29429;51.074;13.764;2023-08-30T15:25:48;19.70;99.90
43949;DHT22;29429;51.074;13.764;2023-08-30T15:28:20;19.70;99.90
43949;DHT22;29429;51.074;13.764;2023-08-30T15:30:53;19.80;99.90
43949;DHT22;29429;51.074;13.764;2023-08-30T15:33:21;19.90;99.90
43949;DHT22;29429;51.074;13.764;2023-08-30T15:35:57;20.00;99.70
43949;DHT22;29429;51.074;13.764;2023-08-30T15:38:25;20.10;99.50
43949;DHT22;29429;51.074;13.764;2023-08-30T15:40:55;20.20;99.90
43949;DHT22;29429;51.074;13.764;2023-08-30T15:43:23;20.30;99.70
43949;DHT22;29429;51.074;13.764;2023-08-30T15:45:50;20.50;99.40